Aviation Digital Data Service (ADDS)

Output produced by METARs form (1237 UTC 19 April 2015)
found at http://aviationweather.gov/adds/metars/
 
KCKB 191122Z 1912/2012 06004KT P6SM BKN250 WS020/16030KT 
     FM191400 08009G16KT P6SM BKN150 
     FM191800 11013G18KT P6SM BKN070 
     FM192000 10013G23KT P6SM -SHRA OVC040 
     FM192200 10013G25KT 4SM SHRA BR OVC035 
     FM200400 16009G15KT P6SM BKN035 
     FM201100 18004KT 6SM BR BKN015